Time;durP1;ratioP1;P1;durP2;ratioP2;P2;SDS_P1;SDS_P2;PMS_P1;PMS_P2;Temp;Humidity;BMP_temperature;BMP_pressure;BME280_temperature;BME280_humidity;BME280_pressure;Samples;Min_cycle;Max_cycle;Signal;HPM_P1;HPM_P2
2022/04/17 00:02:17;;;;;;;26.13;10.27;;;;;;;;;;4970939;28;20405;-64
2022/04/17 00:04:43;;;;;;;23.02;9.60;;;;;;;;;;4969154;28;20498;-65
2022/04/17 00:07:08;;;;;;;26.52;10.52;;;;;;;;;;4969649;28;20435;-64
2022/04/17 00:09:33;;;;;;;30.83;11.20;;;;;;;;;;4969010;28;20437;-64
2022/04/17 00:12:01;;;;;;;32.83;10.98;;;;;;;;;;4969306;28;20508;-65
2022/04/17 00:14:27;;;;;;;33.08;10.70;;;;;;;;;;4969145;28;20364;-65
2022/04/17 00:16:54;;;;;;;26.50;9.02;;;;;;;;;;4970110;28;20460;-64
2022/04/17 00:19:19;;;;;;;31.08;11.50;;;;;;;;;;4969192;28;20300;-64
2022/04/17 00:21:45;;;;;;;35.10;11.13;;;;;;;;;;4968644;28;20335;-64
2022/04/17 00:24:10;;;;;;;28.48;9.75;;;;;;;;;;4969671;28;20025;-64
2022/04/17 00:26:35;;;;;;;32.53;11.80;;;;;;;;;;4968515;28;20383;-64
2022/04/17 00:29:01;;;;;;;35.40;10.93;;;;;;;;;;4968754;28;20448;-65
2022/04/17 00:31:26;;;;;;;29.98;10.35;;;;;;;;;;4968681;28;20464;-65
2022/04/17 00:33:51;;;;;;;32.13;10.15;;;;;;;;;;4968702;28;20044;-64
2022/04/17 00:36:16;;;;;;;31.90;10.45;;;;;;;;;;4970532;28;20373;-65
2022/04/17 00:38:42;;;;;;;31.65;9.85;;;;;;;;;;4969748;28;20413;-64
2022/04/17 00:41:07;;;;;;;31.33;10.07;;;;;;;;;;4968721;28;20509;-65
2022/04/17 00:43:43;;;;;;;37.75;9.98;;;;;;;;;;4969550;28;20454;-64
2022/04/17 00:46:08;;;;;;;35.53;11.98;;;;;;;;;;4968416;28;20427;-64
2022/04/17 00:48:34;;;;;;;36.35;10.88;;;;;;;;;;4968431;28;20382;-64
2022/04/17 00:51:00;;;;;;;41.13;11.82;;;;;;;;;;4969665;28;20638;-64
2022/04/17 00:53:26;;;;;;;34.83;10.65;;;;;;;;;;4968357;28;20417;-65
2022/04/17 00:55:51;;;;;;;35.05;11.20;;;;;;;;;;4967396;28;20033;-64
2022/04/17 00:58:17;;;;;;;39.65;11.77;;;;;;;;;;4951037;28;20091;-65
2022/04/17 01:00:43;;;;;;;29.85;9.48;;;;;;;;;;4973057;28;20345;-65
2022/04/17 01:03:12;;;;;;;28.35;9.82;;;;;;;;;;4979613;28;20374;-64
2022/04/17 01:05:39;;;;;;;32.60;9.38;;;;;;;;;;4972196;28;20056;-65
2022/04/17 01:08:07;;;;;;;28.85;9.68;;;;;;;;;;4973002;28;20456;-65
2022/04/17 01:10:32;;;;;;;29.05;9.98;;;;;;;;;;4972403;28;20041;-64
2022/04/17 01:12:59;;;;;;;25.10;9.25;;;;;;;;;;4972262;28;20425;-64
2022/04/17 01:15:25;;;;;;;27.70;9.60;;;;;;;;;;4971664;28;20385;-65
2022/04/17 01:17:50;;;;;;;35.78;10.52;;;;;;;;;;4972580;28;20472;-64
2022/04/17 01:20:16;;;;;;;31.50;10.23;;;;;;;;;;4971653;28;20516;-64
2022/04/17 01:22:49;;;;;;;23.98;8.20;;;;;;;;;;4971631;28;20557;-65
2022/04/17 01:28:15;;;;;;;32.08;10.93;;;;;;;;;;4892429;29;20394;-64
2022/04/17 01:30:40;;;;;;;27.02;9.23;;;;;;;;;;4954701;28;20029;-64
2022/04/17 01:33:06;;;;;;;23.13;8.35;;;;;;;;;;4971463;28;20459;-64
2022/04/17 01:35:32;;;;;;;22.67;8.68;;;;;;;;;;4971688;28;20457;-64
2022/04/17 01:37:57;;;;;;;23.02;7.75;;;;;;;;;;4971371;28;20570;-64
2022/04/17 01:40:23;;;;;;;21.83;7.70;;;;;;;;;;4971971;28;20461;-65
2022/04/17 01:42:48;;;;;;;17.70;7.40;;;;;;;;;;4971491;28;20461;-64
2022/04/17 01:45:13;;;;;;;19.73;7.65;;;;;;;;;;4970750;28;20460;-64
2022/04/17 01:47:39;;;;;;;23.70;7.90;;;;;;;;;;4971923;28;20429;-64
2022/04/17 01:50:06;;;;;;;18.23;7.72;;;;;;;;;;4971792;28;20342;-64
2022/04/17 01:52:32;;;;;;;22.77;7.78;;;;;;;;;;4971241;28;20351;-65
2022/04/17 01:54:57;;;;;;;27.48;8.05;;;;;;;;;;4972728;28;20420;-64
2022/04/17 01:57:23;;;;;;;21.50;7.10;;;;;;;;;;4971677;28;20332;-64
2022/04/17 01:59:48;;;;;;;18.38;7.15;;;;;;;;;;4971574;28;20471;-65
2022/04/17 02:02:13;;;;;;;21.85;7.47;;;;;;;;;;4971009;28;20324;-64
2022/04/17 02:04:38;;;;;;;20.50;7.30;;;;;;;;;;4971226;28;20429;-64
2022/04/17 02:07:04;;;;;;;20.42;7.68;;;;;;;;;;4970916;28;20460;-64
2022/04/17 02:09:30;;;;;;;22.85;8.35;;;;;;;;;;4972381;28;20029;-64
2022/04/17 02:11:55;;;;;;;24.35;7.68;;;;;;;;;;4971447;28;20095;-64
2022/04/17 02:14:20;;;;;;;20.98;7.50;;;;;;;;;;4969541;28;20425;-64
2022/04/17 02:16:46;;;;;;;20.15;7.45;;;;;;;;;;4970604;28;20507;-64
2022/04/17 02:19:11;;;;;;;16.77;6.90;;;;;;;;;;4970534;28;20033;-64
2022/04/17 02:21:37;;;;;;;18.00;6.57;;;;;;;;;;4970407;28;20026;-64
2022/04/17 02:24:03;;;;;;;20.33;7.65;;;;;;;;;;4971145;28;20479;-64
2022/04/17 02:26:29;;;;;;;18.05;6.75;;;;;;;;;;4970402;28;20092;-64
2022/04/17 02:28:58;;;;;;;20.85;7.50;;;;;;;;;;4970629;28;20030;-64
2022/04/17 02:31:24;;;;;;;17.42;7.15;;;;;;;;;;4970388;28;20329;-64
2022/04/17 02:33:50;;;;;;;19.60;7.18;;;;;;;;;;4970388;28;20407;-64
2022/04/17 02:36:16;;;;;;;19.98;7.15;;;;;;;;;;4970271;28;20437;-64
2022/04/17 02:38:41;;;;;;;21.23;7.25;;;;;;;;;;4970525;28;20409;-64
2022/04/17 02:41:06;;;;;;;21.63;7.63;;;;;;;;;;4970593;28;20527;-64
2022/04/17 02:43:32;;;;;;;17.88;7.18;;;;;;;;;;4971558;28;20663;-64
2022/04/17 02:45:57;;;;;;;15.88;8.00;;;;;;;;;;4969702;28;20502;-64
2022/04/17 02:48:23;;;;;;;19.77;7.13;;;;;;;;;;4970674;28;20479;-64
2022/04/17 02:50:48;;;;;;;21.38;6.45;;;;;;;;;;4970084;28;20034;-64
2022/04/17 02:53:15;;;;;;;22.08;7.20;;;;;;;;;;4969969;28;20318;-64
2022/04/17 02:55:40;;;;;;;18.02;7.50;;;;;;;;;;4970394;28;20387;-64
2022/04/17 02:58:06;;;;;;;17.70;7.20;;;;;;;;;;4970224;28;20407;-65
2022/04/17 03:00:31;;;;;;;19.38;6.95;;;;;;;;;;4971806;28;20037;-64
2022/04/17 03:05:41;;;;;;;19.15;7.05;;;;;;;;;;4970344;28;20107;-64
2022/04/17 03:08:14;;;;;;;15.18;6.53;;;;;;;;;;4970046;28;20456;-64
2022/04/17 03:10:46;;;;;;;16.88;6.38;;;;;;;;;;4971084;28;20454;-64
2022/04/17 03:13:11;;;;;;;17.38;6.57;;;;;;;;;;4970251;28;20025;-64
2022/04/17 03:15:38;;;;;;;13.02;5.60;;;;;;;;;;4970268;28;20444;-64
2022/04/17 03:18:05;;;;;;;15.88;6.35;;;;;;;;;;4969670;28;20530;-64
2022/04/17 03:20:30;;;;;;;18.60;6.93;;;;;;;;;;4969894;28;20429;-64
2022/04/17 03:22:55;;;;;;;16.42;6.60;;;;;;;;;;4969495;28;20456;-64
2022/04/17 03:25:23;;;;;;;18.90;6.57;;;;;;;;;;4969209;28;20445;-64
2022/04/17 03:27:48;;;;;;;20.80;7.53;;;;;;;;;;4969290;28;20434;-65
2022/04/17 03:30:15;;;;;;;14.75;5.57;;;;;;;;;;4969485;28;20033;-64
2022/04/17 03:32:49;;;;;;;15.52;6.30;;;;;;;;;;4969297;28;20441;-65
2022/04/17 03:35:16;;;;;;;16.33;6.55;;;;;;;;;;4970919;28;20447;-65
2022/04/17 03:37:44;;;;;;;13.90;6.05;;;;;;;;;;4969312;28;20182;-64
2022/04/17 03:40:14;;;;;;;20.73;7.67;;;;;;;;;;4969221;28;20021;-64
2022/04/17 03:42:40;;;;;;;27.30;7.28;;;;;;;;;;4969471;28;20652;-64
2022/04/17 03:45:07;;;;;;;18.90;6.88;;;;;;;;;;4968955;28;20337;-64
2022/04/17 03:47:33;;;;;;;20.90;6.22;;;;;;;;;;4969368;28;20339;-64
2022/04/17 03:49:59;;;;;;;15.95;6.15;;;;;;;;;;4969008;28;20041;-65
2022/04/17 03:52:24;;;;;;;16.48;6.10;;;;;;;;;;4969654;28;20415;-64
2022/04/17 03:54:49;;;;;;;14.85;6.07;;;;;;;;;;4951665;28;20342;-64
2022/04/17 03:57:15;;;;;;;16.80;6.78;;;;;;;;;;4969264;28;20415;-64
2022/04/17 03:59:40;;;;;;;21.77;5.93;;;;;;;;;;4969420;28;20033;-65
2022/04/17 04:02:07;;;;;;;17.98;6.60;;;;;;;;;;4969239;28;20510;-64
2022/04/17 04:04:33;;;;;;;12.73;5.40;;;;;;;;;;4969977;28;20325;-64
2022/04/17 04:06:58;;;;;;;14.73;6.10;;;;;;;;;;4969620;28;20306;-65
2022/04/17 04:09:24;;;;;;;18.15;6.72;;;;;;;;;;4969305;28;20505;-64
2022/04/17 04:11:49;;;;;;;16.52;6.28;;;;;;;;;;4969221;28;20464;-64
2022/04/17 04:14:14;;;;;;;16.70;6.70;;;;;;;;;;4970239;28;20409;-64
2022/04/17 04:16:40;;;;;;;16.95;6.60;;;;;;;;;;4969151;28;20147;-64
2022/04/17 04:19:05;;;;;;;12.45;6.10;;;;;;;;;;4969294;28;20116;-65
2022/04/17 04:21:31;;;;;;;17.50;6.80;;;;;;;;;;4969182;28;20451;-64
2022/04/17 04:23:56;;;;;;;15.98;6.35;;;;;;;;;;4968989;28;20037;-64
2022/04/17 04:26:22;;;;;;;13.90;5.55;;;;;;;;;;4968548;28;20437;-65
2022/04/17 04:28:47;;;;;;;15.65;6.32;;;;;;;;;;4969292;28;20429;-64
2022/04/17 04:31:14;;;;;;;16.73;6.00;;;;;;;;;;4968557;28;20470;-64
2022/04/17 04:33:41;;;;;;;16.50;5.57;;;;;;;;;;4951675;28;20337;-65
2022/04/17 04:36:10;;;;;;;16.05;6.22;;;;;;;;;;4969671;28;20380;-65
2022/04/17 04:38:36;;;;;;;12.80;5.60;;;;;;;;;;4971941;28;20349;-64
2022/04/17 04:41:01;;;;;;;15.63;5.93;;;;;;;;;;4972848;28;20347;-64
2022/04/17 04:43:27;;;;;;;15.93;6.10;;;;;;;;;;4974313;28;20359;-64
2022/04/17 04:46:07;;;;;;;12.45;5.68;;;;;;;;;;4972022;28;20460;-64
2022/04/17 04:51:25;;;;;;;10.88;5.75;;;;;;;;;;4972843;28;20343;-65
2022/04/17 04:53:51;;;;;;;13.73;5.55;;;;;;;;;;4973300;28;20443;-64
2022/04/17 04:56:17;;;;;;;14.80;6.05;;;;;;;;;;4973142;28;20432;-64
2022/04/17 04:58:43;;;;;;;18.48;6.47;;;;;;;;;;4973265;28;20333;-65
2022/04/17 05:01:08;;;;;;;13.50;5.68;;;;;;;;;;4972809;28;20301;-64
2022/04/17 05:03:35;;;;;;;12.57;5.57;;;;;;;;;;4972031;28;20051;-64
2022/04/17 05:06:00;;;;;;;18.13;6.85;;;;;;;;;;4973018;28;20534;-64
2022/04/17 05:08:26;;;;;;;15.60;6.00;;;;;;;;;;4972924;28;20383;-64
2022/04/17 05:10:51;;;;;;;13.70;5.38;;;;;;;;;;4973340;28;20100;-65
2022/04/17 05:13:17;;;;;;;13.93;5.38;;;;;;;;;;4972267;28;20399;-64
2022/04/17 05:15:42;;;;;;;11.35;5.32;;;;;;;;;;4971736;28;20437;-64
2022/04/17 05:18:07;;;;;;;15.57;6.03;;;;;;;;;;4954612;28;20456;-65
2022/04/17 05:20:33;;;;;;;15.07;5.65;;;;;;;;;;4971617;28;20330;-65
2022/04/17 05:23:04;;;;;;;15.27;7.07;;;;;;;;;;4972061;28;20325;-64
2022/04/17 05:25:30;;;;;;;13.13;5.82;;;;;;;;;;4971661;28;20494;-64
2022/04/17 05:27:55;;;;;;;14.73;5.90;;;;;;;;;;4972758;28;20391;-64
2022/04/17 05:30:20;;;;;;;14.60;5.68;;;;;;;;;;4972195;28;20371;-65
2022/04/17 05:32:46;;;;;;;14.43;6.50;;;;;;;;;;4971968;28;20423;-64
2022/04/17 05:35:11;;;;;;;12.90;6.20;;;;;;;;;;4971475;28;20369;-65
2022/04/17 05:37:36;;;;;;;14.70;6.70;;;;;;;;;;4971628;28;20025;-64
2022/04/17 05:40:02;;;;;;;15.25;6.38;;;;;;;;;;4971483;28;20460;-64
2022/04/17 05:42:29;;;;;;;13.98;6.28;;;;;;;;;;4971303;28;20037;-65
2022/04/17 05:44:54;;;;;;;13.20;5.70;;;;;;;;;;4970682;28;20368;-64
2022/04/17 05:47:19;;;;;;;14.45;5.55;;;;;;;;;;4972914;28;20052;-65
2022/04/17 05:49:45;;;;;;;16.77;6.40;;;;;;;;;;4971926;28;20391;-65
2022/04/17 05:52:11;;;;;;;16.25;6.95;;;;;;;;;;4971207;28;20441;-65
2022/04/17 05:54:36;;;;;;;14.18;6.47;;;;;;;;;;4953724;28;20409;-65
2022/04/17 05:57:02;;;;;;;15.75;6.07;;;;;;;;;;4971159;28;20400;-65
2022/04/17 05:59:27;;;;;;;14.70;5.97;;;;;;;;;;4971484;28;20116;-64
2022/04/17 06:01:52;;;;;;;12.75;5.82;;;;;;;;;;4970965;28;20044;-65
2022/04/17 06:04:18;;;;;;;15.50;6.07;;;;;;;;;;4971129;28;20405;-64
2022/04/17 06:06:43;;;;;;;15.90;5.97;;;;;;;;;;4971822;28;20026;-65
2022/04/17 06:09:08;;;;;;;17.65;6.22;;;;;;;;;;4971220;28;20414;-65
2022/04/17 06:11:34;;;;;;;14.27;5.70;;;;;;;;;;4971681;28;20405;-64
2022/04/17 06:14:00;;;;;;;15.02;6.53;;;;;;;;;;4971205;28;20471;-65
2022/04/17 06:16:25;;;;;;;15.55;6.13;;;;;;;;;;4970660;28;20521;-65
2022/04/17 06:18:50;;;;;;;16.27;7.10;;;;;;;;;;4970867;28;20034;-65
2022/04/17 06:21:18;;;;;;;13.52;5.80;;;;;;;;;;4970556;28;20172;-66
2022/04/17 06:23:43;;;;;;;12.98;5.93;;;;;;;;;;4972019;28;20033;-64
2022/04/17 06:26:09;;;;;;;15.15;5.45;;;;;;;;;;4970673;28;20417;-64
2022/04/17 06:28:34;;;;;;;13.85;6.00;;;;;;;;;;4971190;28;20456;-65
2022/04/17 06:30:59;;;;;;;9.70;5.00;;;;;;;;;;4970526;28;20441;-65
2022/04/17 06:33:25;;;;;;;13.90;5.85;;;;;;;;;;4971082;28;20459;-64
2022/04/17 06:35:50;;;;;;;12.18;5.75;;;;;;;;;;4970873;28;20034;-65
2022/04/17 06:38:16;;;;;;;13.20;5.82;;;;;;;;;;4971110;28;20475;-65
2022/04/17 06:40:42;;;;;;;14.07;5.03;;;;;;;;;;4970113;28;20427;-65
2022/04/17 06:43:08;;;;;;;13.43;5.30;;;;;;;;;;4971555;28;20448;-65
2022/04/17 06:45:36;;;;;;;14.52;5.88;;;;;;;;;;4970030;28;20068;-65
2022/04/17 06:48:18;;;;;;;11.00;5.85;;;;;;;;;;4970292;28;20448;-65
2022/04/17 06:50:45;;;;;;;12.32;5.55;;;;;;;;;;4969927;28;20337;-65
2022/04/17 06:53:10;;;;;;;10.90;4.55;;;;;;;;;;4970050;28;20684;-65
2022/04/17 06:55:35;;;;;;;12.40;4.95;;;;;;;;;;4969947;28;20352;-65
2022/04/17 06:58:01;;;;;;;11.95;4.97;;;;;;;;;;4970203;28;20510;-65
2022/04/17 07:00:26;;;;;;;14.32;4.68;;;;;;;;;;4969774;28;20508;-65
2022/04/17 07:02:51;;;;;;;12.00;5.13;;;;;;;;;;4969706;28;20029;-65
2022/04/17 07:05:16;;;;;;;11.32;4.88;;;;;;;;;;4969974;28;20294;-65
2022/04/17 07:07:42;;;;;;;10.45;4.97;;;;;;;;;;4969588;28;20502;-65
2022/04/17 07:10:08;;;;;;;10.93;4.75;;;;;;;;;;4969716;28;20460;-65
2022/04/17 07:12:34;;;;;;;9.77;4.28;;;;;;;;;;4970771;28;20360;-65
2022/04/17 07:15:00;;;;;;;10.85;4.68;;;;;;;;;;4969802;28;20314;-65
2022/04/17 07:17:39;;;;;;;8.75;4.75;;;;;;;;;;4971051;28;20417;-65
2022/04/17 07:20:07;;;;;;;11.68;4.82;;;;;;;;;;4970004;28;20453;-65
2022/04/17 07:22:36;;;;;;;9.98;4.70;;;;;;;;;;4970784;28;20099;-65
2022/04/17 07:25:04;;;;;;;10.98;4.30;;;;;;;;;;4969712;28;20321;-65
2022/04/17 07:27:36;;;;;;;11.32;4.65;;;;;;;;;;4969634;28;20044;-65
2022/04/17 07:30:03;;;;;;;8.05;3.60;;;;;;;;;;4969991;28;20033;-65
2022/04/17 07:32:30;;;;;;;8.60;3.88;;;;;;;;;;4969472;28;20345;-65
2022/04/17 07:34:56;;;;;;;8.32;3.72;;;;;;;;;;4970551;28;20340;-65
2022/04/17 07:37:26;;;;;;;7.70;3.50;;;;;;;;;;4969843;28;20498;-65
2022/04/17 07:39:51;;;;;;;7.28;3.47;;;;;;;;;;4968785;28;20401;-65
2022/04/17 07:42:19;;;;;;;9.07;3.70;;;;;;;;;;4967640;28;20392;-65
2022/04/17 07:44:44;;;;;;;6.57;3.38;;;;;;;;;;4968935;28;20472;-65
2022/04/17 07:47:09;;;;;;;7.88;3.50;;;;;;;;;;4969203;28;20511;-65
2022/04/17 07:49:35;;;;;;;6.97;3.83;;;;;;;;;;4969196;28;20453;-65
2022/04/17 07:52:00;;;;;;;7.63;3.80;;;;;;;;;;4970924;28;20060;-65
2022/04/17 07:54:26;;;;;;;10.65;4.72;;;;;;;;;;4969303;28;20384;-65
2022/04/17 07:56:51;;;;;;;8.70;3.85;;;;;;;;;;4969278;28;20360;-68
2022/04/17 07:59:17;;;;;;;8.70;3.50;;;;;;;;;;4969360;28;20459;-65
2022/04/17 08:01:45;;;;;;;8.50;3.63;;;;;;;;;;4969117;28;20113;-66
2022/04/17 08:04:10;;;;;;;8.50;3.30;;;;;;;;;;4971148;28;20491;-65
2022/04/17 08:06:36;;;;;;;8.15;3.45;;;;;;;;;;4969826;28;20430;-65
2022/04/17 08:09:01;;;;;;;8.00;3.58;;;;;;;;;;4968995;28;20385;-65
2022/04/17 08:11:28;;;;;;;5.45;2.72;;;;;;;;;;4968932;28;20048;-65
2022/04/17 08:13:54;;;;;;;9.93;3.88;;;;;;;;;;4955439;28;20029;-65
2022/04/17 08:16:19;;;;;;;8.95;4.00;;;;;;;;;;4972991;28;20448;-65
2022/04/17 08:18:44;;;;;;;6.68;3.30;;;;;;;;;;4973050;28;20451;-65
2022/04/17 08:21:10;;;;;;;6.22;2.95;;;;;;;;;;4972882;28;20104;-65
2022/04/17 08:23:37;;;;;;;6.28;3.15;;;;;;;;;;4973197;28;20033;-66
2022/04/17 08:26:03;;;;;;;5.15;3.25;;;;;;;;;;4973704;28;20376;-65
2022/04/17 08:28:28;;;;;;;7.55;3.33;;;;;;;;;;4972903;28;20384;-65
2022/04/17 08:30:55;;;;;;;9.60;3.33;;;;;;;;;;4973138;28;20392;-66
2022/04/17 08:33:20;;;;;;;6.15;2.60;;;;;;;;;;4972909;28;20313;-65
2022/04/17 08:35:46;;;;;;;7.15;3.95;;;;;;;;;;4954947;28;20371;-65
2022/04/17 08:38:12;;;;;;;9.65;3.67;;;;;;;;;;4972674;28;20459;-65
2022/04/17 08:40:38;;;;;;;5.22;2.83;;;;;;;;;;4972688;28;20344;-65
2022/04/17 08:43:04;;;;;;;6.38;2.90;;;;;;;;;;4973354;28;20459;-65
2022/04/17 08:45:30;;;;;;;6.95;3.00;;;;;;;;;;4954575;28;20385;-65
2022/04/17 08:47:56;;;;;;;7.50;3.33;;;;;;;;;;4972398;28;20384;-65
2022/04/17 08:50:21;;;;;;;5.20;2.42;;;;;;;;;;4972844;28;20102;-65
2022/04/17 08:52:49;;;;;;;7.55;3.00;;;;;;;;;;4972137;28;20420;-65
2022/04/17 08:55:15;;;;;;;5.00;2.58;;;;;;;;;;5000594;28;20364;-65
2022/04/17 08:57:40;;;;;;;12.05;5.85;;;;;;;;;;5007957;28;20355;-65
2022/04/17 09:00:10;;;;;;;14.65;7.63;;;;;;;;;;4992698;28;20356;-63
2022/04/17 09:02:35;;;;;;;37.45;22.95;;;;;;;;;;4992042;28;20453;-66
2022/04/17 09:05:05;;;;;;;30.35;18.08;;;;;;;;;;4991855;28;20440;-65
2022/04/17 09:07:40;;;;;;;;;;;;;;;;;;4991618;28;20471;-65
2022/04/17 09:10:06;;;;;;;63.25;32.88;;;;;;;;;;4992642;28;20308;-65
2022/04/17 09:12:32;;;;;;;75.97;37.88;;;;;;;;;;4990925;28;20063;-66
2022/04/17 09:14:59;;;;;;;73.20;40.83;;;;;;;;;;4991479;28;20428;-66
2022/04/17 09:17:29;;;;;;;85.15;46.50;;;;;;;;;;4990234;28;20419;-65
2022/04/17 09:19:54;;;;;;;72.22;42.10;;;;;;;;;;4992419;28;20029;-65
2022/04/17 09:22:19;;;;;;;71.22;40.25;;;;;;;;;;4992108;28;20432;-66
2022/04/17 09:24:45;;;;;;;57.47;34.53;;;;;;;;;;4973612;28;20386;-66
2022/04/17 09:27:11;;;;;;;50.83;31.73;;;;;;;;;;4993011;28;20432;-66
2022/04/17 09:29:37;;;;;;;49.30;28.50;;;;;;;;;;4991346;28;20397;-66
2022/04/17 09:32:10;;;;;;;41.85;27.17;;;;;;;;;;4990947;28;20056;-65
2022/04/17 09:34:41;;;;;;;43.13;27.00;;;;;;;;;;4991417;28;20328;-66
2022/04/17 09:37:11;;;;;;;52.00;26.55;;;;;;;;;;4991097;28;20339;-66
2022/04/17 09:39:37;;;;;;;39.58;23.52;;;;;;;;;;4991272;28;20436;-65
2022/04/17 09:42:03;;;;;;;45.10;24.65;;;;;;;;;;4991165;28;20428;-66
2022/04/17 09:44:37;;;;;;;36.75;22.92;;;;;;;;;;4990778;28;20456;-66
2022/04/17 09:47:12;;;;;;;38.88;23.40;;;;;;;;;;4991286;28;20428;-65
2022/04/17 09:49:50;;;;;;;41.42;22.42;;;;;;;;;;4991651;28;20051;-66
2022/04/17 09:52:15;;;;;;;44.17;21.52;;;;;;;;;;4990849;28;20025;-66
2022/04/17 09:54:42;;;;;;;36.10;21.75;;;;;;;;;;4991279;28;20456;-65
2022/04/17 09:57:12;;;;;;;29.88;20.83;;;;;;;;;;4974823;28;20325;-65
2022/04/17 09:59:37;;;;;;;38.70;21.92;;;;;;;;;;4991356;28;20037;-65
2022/04/17 10:02:04;;;;;;;35.83;20.65;;;;;;;;;;4973359;28;20021;-65
2022/04/17 10:04:30;;;;;;;29.77;20.52;;;;;;;;;;4990785;28;20633;-67
2022/04/17 10:06:59;;;;;;;29.38;18.98;;;;;;;;;;4991194;28;20452;-65
2022/04/17 10:09:24;;;;;;;29.00;18.40;;;;;;;;;;4990704;28;20334;-65
2022/04/17 10:11:51;;;;;;;25.33;16.15;;;;;;;;;;4990673;28;20411;-65
2022/04/17 10:14:16;;;;;;;28.60;16.27;;;;;;;;;;4990457;28;20348;-65
2022/04/17 10:16:43;;;;;;;27.65;16.80;;;;;;;;;;4990462;28;20047;-66
2022/04/17 10:19:13;;;;;;;26.38;16.13;;;;;;;;;;4990399;28;20328;-65
2022/04/17 10:21:39;;;;;;;27.75;15.40;;;;;;;;;;4990480;28;20125;-65
2022/04/17 10:24:06;;;;;;;24.63;16.40;;;;;;;;;;4990546;28;20024;-65
2022/04/17 10:26:38;;;;;;;23.30;15.05;;;;;;;;;;4990828;28;20345;-65
2022/04/17 10:29:09;;;;;;;27.33;15.25;;;;;;;;;;4990066;28;20424;-65
2022/04/17 10:31:54;;;;;;;22.17;14.48;;;;;;;;;;4973080;28;20432;-66
2022/04/17 10:34:32;;;;;;;23.50;13.63;;;;;;;;;;4990313;28;20496;-65
2022/04/17 10:37:28;;;;;;;21.63;14.55;;;;;;;;;;4989868;28;20475;-66
2022/04/17 10:39:54;;;;;;;22.13;13.32;;;;;;;;;;4990667;28;20513;-66
2022/04/17 10:42:22;;;;;;;23.25;13.45;;;;;;;;;;4972159;28;20325;-66
2022/04/17 10:45:09;;;;;;;20.20;13.05;;;;;;;;;;4989859;28;20068;-65
2022/04/17 10:47:34;;;;;;;20.05;13.23;;;;;;;;;;4989821;28;20137;-65
2022/04/17 10:50:07;;;;;;;17.75;11.45;;;;;;;;;;4972343;28;20431;-65
2022/04/17 10:52:33;;;;;;;15.07;10.98;;;;;;;;;;4990831;28;20515;-65
2022/04/17 10:55:11;;;;;;;16.70;11.02;;;;;;;;;;4989465;28;20499;-65
2022/04/17 10:57:50;;;;;;;18.45;11.35;;;;;;;;;;4989740;28;20326;-65
2022/04/17 11:00:26;;;;;;;18.23;11.90;;;;;;;;;;4989858;28;20394;-65
2022/04/17 11:02:53;;;;;;;18.75;11.63;;;;;;;;;;4991108;28;20460;-65
2022/04/17 11:08:26;;;;;;;17.08;11.27;;;;;;;;;;4990409;28;20368;-65
2022/04/17 11:10:54;;;;;;;15.82;11.07;;;;;;;;;;4989729;28;20286;-65
2022/04/17 11:13:21;;;;;;;17.87;10.63;;;;;;;;;;4989350;28;20371;-65
2022/04/17 11:15:55;;;;;;;17.17;10.68;;;;;;;;;;4990278;28;20349;-65
2022/04/17 11:18:24;;;;;;;15.20;10.35;;;;;;;;;;4989647;28;20344;-65
2022/04/17 11:20:53;;;;;;;13.25;9.10;;;;;;;;;;4989505;28;20472;-65
2022/04/17 11:23:47;;;;;;;17.25;9.65;;;;;;;;;;4989983;28;20330;-65
2022/04/17 11:26:12;;;;;;;17.23;8.60;;;;;;;;;;4989017;28;20344;-66
2022/04/17 11:28:37;;;;;;;15.32;9.05;;;;;;;;;;4989252;28;20400;-65
2022/04/17 11:31:03;;;;;;;12.13;8.52;;;;;;;;;;4989093;28;20056;-65
2022/04/17 11:33:28;;;;;;;11.27;8.15;;;;;;;;;;4989207;28;20482;-65
2022/04/17 11:35:53;;;;;;;15.02;9.40;;;;;;;;;;4990232;28;20424;-65
2022/04/17 11:38:19;;;;;;;14.45;9.20;;;;;;;;;;4990363;28;20431;-65
2022/04/17 11:40:47;;;;;;;11.95;8.50;;;;;;;;;;4988896;28;20463;-65
2022/04/17 11:43:15;;;;;;;14.45;8.27;;;;;;;;;;4990384;28;20332;-65
2022/04/17 11:45:42;;;;;;;10.55;8.00;;;;;;;;;;4970751;28;20467;-65
2022/04/17 11:48:10;;;;;;;12.35;7.85;;;;;;;;;;4988742;28;20383;-65
2022/04/17 11:50:36;;;;;;;11.10;7.90;;;;;;;;;;4989011;28;20111;-65
2022/04/17 11:53:12;;;;;;;12.90;8.88;;;;;;;;;;4989489;28;20068;-65
2022/04/17 11:55:43;;;;;;;11.30;7.88;;;;;;;;;;4989147;28;20498;-65
2022/04/17 11:58:10;;;;;;;11.77;7.53;;;;;;;;;;4989636;28;20460;-66
2022/04/17 12:00:36;;;;;;;12.45;8.32;;;;;;;;;;4988670;28;20448;-65
2022/04/17 12:03:03;;;;;;;13.65;8.00;;;;;;;;;;4988914;28;20486;-65
2022/04/17 12:05:29;;;;;;;12.35;8.02;;;;;;;;;;4989485;28;20400;-65
2022/04/17 12:07:56;;;;;;;11.80;7.22;;;;;;;;;;4988969;28;20036;-65
2022/04/17 12:10:22;;;;;;;13.35;7.25;;;;;;;;;;4988528;28;20459;-65
2022/04/17 12:12:48;;;;;;;11.73;7.60;;;;;;;;;;4988638;28;20426;-65
2022/04/17 12:15:15;;;;;;;9.88;7.07;;;;;;;;;;4988616;28;20459;-65
2022/04/17 12:17:42;;;;;;;11.50;6.82;;;;;;;;;;4989383;28;20428;-65
2022/04/17 12:20:15;;;;;;;9.60;6.32;;;;;;;;;;4988233;28;20385;-65
2022/04/17 12:22:41;;;;;;;11.52;7.10;;;;;;;;;;4990035;28;20407;-65
2022/04/17 12:25:19;;;;;;;10.02;6.78;;;;;;;;;;4988367;28;20525;-65
2022/04/17 12:27:45;;;;;;;9.43;6.03;;;;;;;;;;4988066;28;20108;-65
2022/04/17 12:30:11;;;;;;;13.25;6.97;;;;;;;;;;4970887;28;20074;-66
2022/04/17 12:32:44;;;;;;;10.77;6.30;;;;;;;;;;4989789;28;20124;-65
2022/04/17 12:35:13;;;;;;;7.68;5.68;;;;;;;;;;4988545;28;20333;-65
2022/04/17 12:37:38;;;;;;;9.20;6.05;;;;;;;;;;4989024;28;20439;-65
2022/04/17 12:40:18;;;;;;;9.65;5.60;;;;;;;;;;4989534;28;20387;-65
2022/04/17 12:42:43;;;;;;;9.75;6.05;;;;;;;;;;4988957;28;20365;-65
2022/04/17 12:45:09;;;;;;;7.45;4.85;;;;;;;;;;4988150;28;20473;-65
2022/04/17 12:47:36;;;;;;;9.30;5.80;;;;;;;;;;4970432;28;20383;-65
2022/04/17 12:50:11;;;;;;;11.27;5.82;;;;;;;;;;4970142;28;20465;-65
2022/04/17 12:52:36;;;;;;;8.65;5.18;;;;;;;;;;4988141;28;20493;-65
2022/04/17 12:55:08;;;;;;;8.35;5.32;;;;;;;;;;4987967;28;20436;-65
2022/04/17 12:57:34;;;;;;;8.50;5.70;;;;;;;;;;4988617;28;20372;-65
2022/04/17 12:59:59;;;;;;;7.47;4.90;;;;;;;;;;4991660;28;20352;-65
2022/04/17 13:02:25;;;;;;;5.93;4.65;;;;;;;;;;4992447;28;20060;-65
2022/04/17 13:04:56;;;;;;;7.60;5.68;;;;;;;;;;4992112;28;20098;-65
2022/04/17 13:07:21;;;;;;;9.25;5.13;;;;;;;;;;4991635;28;20343;-65
2022/04/17 13:09:58;;;;;;;9.13;5.28;;;;;;;;;;4992386;28;20364;-65
2022/04/17 13:12:35;;;;;;;7.20;5.20;;;;;;;;;;4992173;28;20348;-66
2022/04/17 13:15:05;;;;;;;7.85;5.05;;;;;;;;;;4992716;28;20396;-65
2022/04/17 13:17:31;;;;;;;7.13;4.47;;;;;;;;;;4991366;28;20427;-65
2022/04/17 13:19:57;;;;;;;7.25;4.63;;;;;;;;;;4991579;28;20348;-65
2022/04/17 13:22:22;;;;;;;9.75;5.10;;;;;;;;;;4992564;28;20339;-65
2022/04/17 13:24:48;;;;;;;9.60;5.32;;;;;;;;;;4991801;28;20439;-65
2022/04/17 13:27:13;;;;;;;7.10;4.80;;;;;;;;;;4991493;28;20033;-65
2022/04/17 13:29:39;;;;;;;7.40;4.72;;;;;;;;;;4991300;28;20522;-65
2022/04/17 13:32:05;;;;;;;6.72;5.18;;;;;;;;;;4991290;28;20029;-65
2022/04/17 13:34:33;;;;;;;7.30;4.97;;;;;;;;;;4991304;28;20094;-65
2022/04/17 13:39:44;;;;;;;8.23;4.82;;;;;;;;;;4992209;28;20135;-66
2022/04/17 13:42:10;;;;;;;7.38;4.47;;;;;;;;;;4991482;28;20363;-65
2022/04/17 13:44:38;;;;;;;7.05;4.43;;;;;;;;;;4992324;28;20344;-65
2022/04/17 13:47:03;;;;;;;5.38;4.00;;;;;;;;;;4990754;28;20530;-65
2022/04/17 13:49:29;;;;;;;6.43;4.40;;;;;;;;;;4991140;28;20178;-64
2022/04/17 13:51:55;;;;;;;6.03;3.83;;;;;;;;;;4990586;28;20036;-65
2022/04/17 13:54:20;;;;;;;8.45;3.95;;;;;;;;;;4973087;28;20440;-65
2022/04/17 13:56:45;;;;;;;6.95;4.25;;;;;;;;;;4990676;28;20029;-65
2022/04/17 13:59:10;;;;;;;6.95;4.05;;;;;;;;;;4992966;28;20496;-65
2022/04/17 14:01:36;;;;;;;6.05;4.15;;;;;;;;;;4991021;28;20424;-65
2022/04/17 14:04:01;;;;;;;6.60;3.70;;;;;;;;;;4990809;28;20104;-65
2022/04/17 14:06:28;;;;;;;6.30;3.55;;;;;;;;;;4990594;28;20416;-64
2022/04/17 14:08:54;;;;;;;8.68;4.30;;;;;;;;;;4972880;28;20509;-65
2022/04/17 14:11:20;;;;;;;5.57;3.78;;;;;;;;;;4990469;28;20468;-65
2022/04/17 14:13:45;;;;;;;9.63;4.47;;;;;;;;;;4990543;28;20424;-65
2022/04/17 14:16:11;;;;;;;7.20;4.05;;;;;;;;;;4990765;28;20086;-65
2022/04/17 14:18:36;;;;;;;8.45;3.92;;;;;;;;;;4990479;28;20694;-65
2022/04/17 14:21:01;;;;;;;7.40;4.13;;;;;;;;;;4991017;28;20337;-65
2022/04/17 14:23:27;;;;;;;6.75;4.15;;;;;;;;;;4990246;28;20118;-64
2022/04/17 14:25:54;;;;;;;4.88;3.50;;;;;;;;;;4990739;28;20432;-65
2022/04/17 14:28:20;;;;;;;5.97;4.00;;;;;;;;;;4990111;28;20507;-65
2022/04/17 14:30:45;;;;;;;5.93;3.30;;;;;;;;;;4990517;28;20442;-65
2022/04/17 14:33:11;;;;;;;4.43;3.03;;;;;;;;;;4990150;28;20048;-65
2022/04/17 14:35:36;;;;;;;5.68;3.22;;;;;;;;;;4990514;28;20133;-65
2022/04/17 14:38:01;;;;;;;4.82;3.70;;;;;;;;;;4989798;28;20378;-65
2022/04/17 14:40:27;;;;;;;4.70;2.75;;;;;;;;;;4990197;28;20108;-65
2022/04/17 14:42:52;;;;;;;4.53;3.28;;;;;;;;;;4989778;28;20391;-65
2022/04/17 14:45:26;;;;;;;4.75;2.75;;;;;;;;;;4989353;28;20472;-67